Time;durP1;ratioP1;P1;durP2;ratioP2;P2;SDS_P1;SDS_P2;PMS_P1;PMS_P2;Temp;Humidity;BMP_temperature;BMP_pressure;BME280_temperature;BME280_humidity;BME280_pressure;Samples;Min_cycle;Max_cycle;Signal;HPM_P1;HPM_P2
2021/04/18 00:00:16;;;;;;;20.02;15.90;;;;;;;7.92;73.59;99601.27;1718636;82;21151;-45
2021/04/18 00:02:44;;;;;;;18.75;15.30;;;;;;;7.98;73.72;99608.04;1797739;79;21146;-45
2021/04/18 00:05:15;;;;;;;18.80;15.85;;;;;;;8.09;73.77;99610.50;1813271;79;21954;-45
2021/04/18 00:07:43;;;;;;;18.07;15.32;;;;;;;8.13;73.70;99606.03;1809769;79;21142;-44
2021/04/18 00:10:11;;;;;;;21.00;16.45;;;;;;;8.10;73.62;99602.08;1782302;79;21178;-45
2021/04/18 00:12:41;;;;;;;18.90;16.12;;;;;;;8.07;73.74;99596.01;1782509;79;22297;-45
2021/04/18 00:15:11;;;;;;;17.85;15.18;;;;;;;8.09;73.76;99592.39;1790877;79;21620;-45
2021/04/18 00:17:40;;;;;;;20.75;17.57;;;;;;;8.17;73.62;99601.53;1795033;79;21185;-45
2021/04/18 00:20:11;;;;;;;21.07;17.02;;;;;;;8.23;73.60;99594.75;1805567;78;21012;-44
2021/04/18 00:22:40;;;;;;;22.93;17.30;;;;;;;8.33;73.50;99596.27;1782990;79;21870;-44
2021/04/18 00:25:11;;;;;;;23.20;16.95;;;;;;;8.40;73.17;99595.92;1799358;79;21624;-44
2021/04/18 00:27:39;;;;;;;18.62;15.88;;;;;;;8.41;72.89;99588.05;1795453;79;21070;-44
2021/04/18 00:30:10;;;;;;;19.85;15.15;;;;;;;8.41;72.56;99591.31;1798942;79;23505;-44
2021/04/18 00:32:39;;;;;;;22.50;16.23;;;;;;;8.45;72.40;99593.55;1786052;79;21208;-44
2021/04/18 00:35:08;;;;;;;23.98;15.83;;;;;;;8.40;72.18;99589.17;1798887;79;21113;-44
2021/04/18 00:37:38;;;;;;;21.45;15.68;;;;;;;8.29;72.18;99582.08;1789788;79;21609;-44
2021/04/18 00:40:09;;;;;;;18.52;15.40;;;;;;;8.14;72.30;99584.07;1810989;79;21139;-44
2021/04/18 00:42:38;;;;;;;18.77;14.30;;;;;;;7.99;72.52;99582.03;1807274;79;22116;-44
2021/04/18 00:45:08;;;;;;;17.80;14.90;;;;;;;7.95;72.69;99575.73;1801988;79;21577;-44
2021/04/18 00:47:38;;;;;;;22.87;15.43;;;;;;;7.93;72.82;99576.66;1784207;79;21050;-44
2021/04/18 00:50:07;;;;;;;;;;;;;;;7.90;72.86;99578.66;1802176;79;21131;-44
2021/04/18 00:52:34;;;;;;;45.45;16.23;;;;;;;7.87;72.83;99577.98;1796378;79;20577;-44
2021/04/18 00:55:05;;;;;;;16.52;14.55;;;;;;;7.69;73.10;99567.97;1794661;79;21213;-44
2021/04/18 00:57:35;;;;;;;20.80;14.98;;;;;;;7.67;73.10;99570.75;1784234;79;21106;-44
2021/04/18 01:00:08;;;;;;;20.32;14.68;;;;;;;7.66;73.07;99578.62;1785571;79;21186;-44
2021/04/18 01:02:35;;;;;;;19.50;15.50;;;;;;;7.71;73.19;99582.45;1741977;80;21216;-44
2021/04/18 01:05:05;;;;;;;23.05;15.45;;;;;;;7.69;73.33;99577.41;1748253;81;21146;-44
2021/04/18 01:07:35;;;;;;;23.75;16.12;;;;;;;7.73;73.36;99576.17;1738883;81;22283;-44
2021/04/18 01:10:06;;;;;;;20.60;16.32;;;;;;;7.77;73.29;99577.08;1755777;81;21333;-44
2021/04/18 01:12:35;;;;;;;19.00;14.98;;;;;;;7.77;73.06;99584.61;1717604;81;21037;-44
2021/04/18 01:15:05;;;;;;;20.35;16.02;;;;;;;7.78;72.95;99573.25;1740477;82;21197;-44
2021/04/18 01:17:33;;;;;;;24.12;16.77;;;;;;;7.75;73.14;99577.95;1741289;82;21218;-44
2021/04/18 01:20:06;;;;;;;23.22;15.05;;;;;;;7.73;73.18;99572.91;1727936;82;21199;-44
2021/04/18 01:23:14;;;;;;;21.65;14.95;;;;;;;7.69;73.22;99569.88;1734372;82;21114;-45
2021/04/18 01:29:32;;;;;;;27.02;14.43;;;;;;;7.67;73.53;99573.45;1779774;78;22764;-45
2021/04/18 01:32:00;;;;;;;28.98;14.40;;;;;;;7.54;73.72;99570.51;1790818;78;21950;-45
2021/04/18 01:34:29;;;;;;;26.77;13.83;;;;;;;7.47;73.85;99579.69;1795853;78;21362;-45
2021/04/18 01:36:57;;;;;;;16.02;13.53;;;;;;;7.41;73.97;99578.55;1762226;78;21880;-45
2021/04/18 01:39:25;;;;;;;27.95;14.30;;;;;;;7.39;74.00;99575.98;1754064;81;21279;-45
2021/04/18 01:41:53;;;;;;;29.90;15.18;;;;;;;7.37;74.09;99573.60;1730218;81;21317;-45
2021/04/18 01:44:21;;;;;;;28.87;14.33;;;;;;;7.33;74.34;99574.05;1724455;81;21024;-45
2021/04/18 01:46:50;;;;;;;26.62;14.43;;;;;;;7.32;74.56;99575.16;1749065;81;22674;-45
2021/04/18 01:49:18;;;;;;;17.00;13.48;;;;;;;7.29;74.52;99570.44;1754247;80;21079;-45
2021/04/18 01:51:59;;;;;;;28.55;13.83;;;;;;;7.32;74.47;99564.37;1736758;81;21114;-45
2021/04/18 01:55:18;;;;;;;23.55;15.40;;;;;;;7.32;74.71;99567.06;1699845;81;21511;-46
2021/04/18 01:57:56;;;;;;;27.42;14.03;;;;;;;7.25;74.74;99569.53;1685275;81;21209;-46
2021/04/18 02:00:35;;;;;;;17.50;13.60;;;;;;;7.18;75.10;99555.78;1747039;81;21397;-46
2021/04/18 02:03:04;;;;;;;19.73;14.28;;;;;;;7.14;75.05;99560.83;1751052;80;21204;-46
2021/04/18 02:05:36;;;;;;;23.38;14.20;;;;;;;7.07;75.19;99551.91;1746526;81;21182;-46
2021/04/18 02:08:07;;;;;;;32.28;14.60;;;;;;;7.13;75.40;99562.73;1741501;81;21020;-46
2021/04/18 02:10:35;;;;;;;27.17;15.00;;;;;;;7.14;75.43;99560.83;1754107;81;21193;-46
2021/04/18 02:13:04;;;;;;;20.27;14.70;;;;;;;7.13;75.50;99558.69;1747718;80;21384;-46
2021/04/18 02:15:34;;;;;;;18.62;14.70;;;;;;;7.18;75.43;99554.44;1739892;81;21203;-46
2021/04/18 02:18:01;;;;;;;15.63;13.10;;;;;;;7.21;75.34;99544.91;1752174;81;22424;-46
2021/04/18 02:20:31;;;;;;;16.17;13.93;;;;;;;7.21;75.39;99543.56;1755262;80;21138;-46
2021/04/18 02:23:00;;;;;;;17.67;14.55;;;;;;;7.17;75.34;99547.46;1758485;80;21628;-46
2021/04/18 02:25:30;;;;;;;18.70;15.23;;;;;;;7.12;75.46;99548.22;1712838;82;21027;-46
2021/04/18 02:27:58;;;;;;;17.32;15.08;;;;;;;7.18;75.53;99542.86;1736817;80;21221;-46
2021/04/18 02:30:28;;;;;;;19.00;14.83;;;;;;;7.26;75.34;99537.38;1753596;80;21170;-46
2021/04/18 02:32:58;;;;;;;27.32;14.55;;;;;;;7.26;75.24;99537.38;1753649;81;21316;-46
2021/04/18 02:35:27;;;;;;;15.80;12.13;;;;;;;7.16;75.15;99531.64;1745296;81;21830;-46
2021/04/18 02:37:55;;;;;;;13.00;11.10;;;;;;;7.16;75.00;99529.73;1754266;81;22275;-46
2021/04/18 02:40:24;;;;;;;14.30;10.93;;;;;;;7.12;75.05;99534.19;1741525;80;21068;-46
2021/04/18 02:42:52;;;;;;;19.20;10.72;;;;;;;7.12;75.10;99531.49;1749191;80;21551;-46
2021/04/18 02:45:21;;;;;;;16.42;9.88;;;;;;;7.10;75.08;99532.41;1737323;81;21672;-45
2021/04/18 02:47:51;;;;;;;14.13;9.25;;;;;;;7.02;75.08;99534.59;1750610;81;22172;-46
2021/04/18 02:50:19;;;;;;;13.50;10.00;;;;;;;6.60;75.28;99473.23;1737430;81;21444;-46
2021/04/18 02:52:49;;;;;;;16.25;10.20;;;;;;;6.97;75.26;99526.16;1753853;80;21202;-45
2021/04/18 02:55:17;;;;;;;15.05;11.57;;;;;;;7.00;75.30;99524.72;1728025;81;21747;-46
2021/04/18 02:57:52;;;;;;;15.70;10.78;;;;;;;6.95;75.30;99516.84;1741205;80;21409;-46
2021/04/18 03:00:22;;;;;;;13.43;10.80;;;;;;;6.85;75.62;99524.77;1761852;81;21612;-46
2021/04/18 03:02:51;;;;;;;13.38;10.90;;;;;;;6.82;75.79;99517.92;1751222;81;21453;-46
2021/04/18 03:05:39;;;;;;;18.48;12.65;;;;;;;6.81;75.98;99519.03;1717004;83;21102;-46
2021/04/18 03:08:42;;;;;;;14.78;11.50;;;;;;;6.77;76.29;99526.20;1740201;81;21027;-45
2021/04/18 03:11:57;;;;;;;13.20;11.18;;;;;;;6.73;76.66;99507.78;1823631;77;22184;-45
2021/04/18 03:14:29;;;;;;;14.73;12.03;;;;;;;6.74;76.62;99507.98;1791379;78;20976;-44
2021/04/18 03:18:37;;;;;;;19.10;11.68;;;;;;;6.88;76.54;99499.06;1825923;78;22797;-44
2021/04/18 03:21:07;;;;;;;13.10;10.63;;;;;;;6.73;76.47;99503.15;1778745;79;21059;-44
2021/04/18 03:23:35;;;;;;;14.55;11.57;;;;;;;6.68;76.42;99507.39;1781849;79;22275;-44
2021/04/18 03:26:04;;;;;;;13.85;11.25;;;;;;;6.70;76.30;99507.06;1795176;79;21612;-44
2021/04/18 03:28:34;;;;;;;15.05;11.57;;;;;;;6.71;76.35;99510.00;1788913;79;21015;-44
2021/04/18 03:31:04;;;;;;;14.75;12.25;;;;;;;6.68;76.51;99517.41;1788683;79;21165;-44
2021/04/18 03:33:34;;;;;;;14.53;11.12;;;;;;;6.67;76.52;99518.52;1789831;79;20965;-44
2021/04/18 03:36:06;;;;;;;13.65;11.22;;;;;;;6.70;76.49;99513.80;1793556;79;21354;-44
2021/04/18 03:38:34;;;;;;;14.03;11.63;;;;;;;6.73;76.39;99498.34;1776735;79;21051;-44
2021/04/18 03:41:03;;;;;;;14.53;11.75;;;;;;;6.71;76.53;99497.87;1787639;79;21875;-44
2021/04/18 03:43:33;;;;;;;13.78;11.18;;;;;;;6.69;76.70;99489.32;1788475;79;21154;-44
2021/04/18 03:46:03;;;;;;;14.95;12.25;;;;;;;6.80;76.59;99492.64;1776280;79;21429;-44
2021/04/18 03:48:34;;;;;;;14.75;11.78;;;;;;;6.80;76.59;99492.64;1800663;79;22408;-44
2021/04/18 03:51:05;;;;;;;15.30;12.93;;;;;;;6.87;76.51;99496.16;1775875;79;21204;-44
2021/04/18 03:53:35;;;;;;;15.20;12.78;;;;;;;6.86;76.35;99494.58;1782171;79;21150;-44
2021/04/18 03:56:06;;;;;;;15.60;12.15;;;;;;;6.79;76.35;99496.45;1790107;78;21146;-46
2021/04/18 03:58:36;;;;;;;14.13;11.57;;;;;;;6.75;76.46;99494.74;1795424;79;21146;-44
2021/04/18 04:01:06;;;;;;;18.75;13.05;;;;;;;6.78;76.54;99499.46;1783301;79;21357;-44
2021/04/18 04:03:36;;;;;;;16.15;12.25;;;;;;;6.77;76.57;99501.95;1789925;79;21589;-44
2021/04/18 04:06:05;;;;;;;15.45;12.60;;;;;;;6.77;76.74;99499.26;1768955;79;21170;-44
2021/04/18 04:08:34;;;;;;;14.07;11.57;;;;;;;6.78;76.64;99502.16;1785170;79;21704;-45
2021/04/18 04:11:03;;;;;;;13.93;11.63;;;;;;;6.83;76.62;99499.26;1805012;79;21620;-44
2021/04/18 04:13:33;;;;;;;15.20;12.40;;;;;;;6.87;76.62;99496.16;1792389;79;21416;-44
2021/04/18 04:16:02;;;;;;;17.02;12.73;;;;;;;6.89;76.66;99503.34;1778815;79;21589;-44
2021/04/18 04:18:32;;;;;;;14.35;11.53;;;;;;;6.91;76.73;99493.02;1788050;79;21134;-46
2021/04/18 04:21:12;;;;;;;15.30;11.90;;;;;;;6.96;76.74;99491.47;1783878;79;21400;-44
2021/04/18 04:23:45;;;;;;;13.62;10.93;;;;;;;6.98;76.41;99485.17;1777122;79;21174;-45
2021/04/18 04:26:14;;;;;;;15.20;11.30;;;;;;;7.08;76.16;99500.93;1775957;80;21363;-45
2021/04/18 04:28:42;;;;;;;13.85;11.48;;;;;;;7.07;76.27;99500.70;1776396;79;21664;-45
2021/04/18 04:31:10;;;;;;;12.63;10.50;;;;;;;7.09;76.41;99494.42;1779533;79;21154;-45
2021/04/18 04:33:38;;;;;;;13.95;11.10;;;;;;;7.16;76.29;99493.34;1781368;79;21661;-45
2021/04/18 04:36:07;;;;;;;14.18;11.48;;;;;;;7.26;76.14;99494.82;1777911;79;21610;-45
2021/04/18 04:38:36;;;;;;;13.45;11.65;;;;;;;7.34;76.06;99500.11;1784095;79;21231;-45
2021/04/18 04:41:04;;;;;;;13.95;11.45;;;;;;;7.37;75.95;99485.95;1788106;79;21174;-45
2021/04/18 04:43:34;;;;;;;12.40;10.00;;;;;;;7.36;75.75;99484.37;1789309;79;25438;-45
2021/04/18 04:46:03;;;;;;;12.82;10.85;;;;;;;7.41;75.61;99476.62;1784623;77;20976;-45
2021/04/18 04:48:31;;;;;;;12.53;10.70;;;;;;;7.47;75.60;99477.19;1788190;79;22280;-45
2021/04/18 04:50:59;;;;;;;13.18;10.82;;;;;;;7.46;75.50;99476.96;1776084;79;21194;-45
2021/04/18 04:53:27;;;;;;;13.22;10.40;;;;;;;7.46;75.78;99476.96;1805878;79;21168;-45
2021/04/18 04:55:57;;;;;;;13.08;10.50;;;;;;;7.53;75.86;99478.00;1784038;79;21413;-45
2021/04/18 04:58:25;;;;;;;15.15;11.45;;;;;;;7.63;75.55;99484.30;1793456;79;21720;-45
2021/04/18 05:00:53;;;;;;;12.53;9.95;;;;;;;7.69;75.16;99479.48;1778175;79;21369;-45
2021/04/18 05:03:27;;;;;;;14.13;10.63;;;;;;;7.67;74.95;99464.17;1790151;78;21158;-45
2021/04/18 05:05:55;;;;;;;12.98;9.68;;;;;;;7.64;74.92;99465.64;1775281;80;21537;-45
2021/04/18 05:08:23;;;;;;;12.60;10.28;;;;;;;7.65;75.22;99459.69;1775697;79;21185;-45
2021/04/18 05:10:53;;;;;;;11.88;9.93;;;;;;;7.71;74.96;99465.06;1775449;80;21123;-45
2021/04/18 05:13:21;;;;;;;11.90;9.63;;;;;;;7.79;75.03;99460.90;1738751;79;21178;-45
2021/04/18 05:15:52;;;;;;;12.68;9.90;;;;;;;7.84;75.07;99459.33;1796908;79;21051;-45
2021/04/18 05:18:20;;;;;;;11.65;10.05;;;;;;;7.88;75.02;99462.16;1763929;79;21438;-45
2021/04/18 05:20:49;;;;;;;10.23;8.90;;;;;;;7.95;74.81;99462.36;1764420;81;21163;-45
2021/04/18 05:23:18;;;;;;;10.85;9.38;;;;;;;8.03;74.22;99455.28;1747172;79;21195;-45
2021/04/18 05:25:46;;;;;;;12.53;9.83;;;;;;;8.09;74.15;99462.00;1755166;78;21387;-45
2021/04/18 05:28:14;;;;;;;12.55;10.35;;;;;;;8.12;74.02;99460.77;1764407;79;21354;-45
2021/04/18 05:30:42;;;;;;;11.93;10.43;;;;;;;8.12;73.93;99460.77;1764243;81;21163;-45
2021/04/18 05:33:10;;;;;;;10.80;9.23;;;;;;;8.13;73.73;99448.82;1764946;79;21159;-46
2021/04/18 05:35:38;;;;;;;11.78;10.40;;;;;;;8.18;73.53;99451.29;1777512;79;21140;-45
2021/04/18 05:38:07;;;;;;;12.50;10.08;;;;;;;8.20;73.35;99446.34;1771822;79;21162;-45
2021/04/18 05:40:35;;;;;;;13.35;10.00;;;;;;;8.15;73.40;99447.93;1775353;79;21928;-45
2021/04/18 05:43:03;;;;;;;13.75;10.48;;;;;;;8.11;73.47;99447.05;1772972;79;21008;-45
2021/04/18 05:45:32;;;;;;;9.23;7.27;;;;;;;8.12;73.53;99448.62;1778951;79;21005;-45
2021/04/18 05:48:00;;;;;;;11.95;10.32;;;;;;;8.17;73.43;99448.39;1784116;79;21162;-45
2021/04/18 05:50:49;;;;;;;14.78;10.35;;;;;;;8.17;73.49;99453.00;1790361;78;22027;-45
2021/04/18 05:53:50;;;;;;;14.23;10.48;;;;;;;8.15;73.58;99450.63;1776164;79;21013;-45
2021/04/18 05:56:17;;;;;;;13.45;9.98;;;;;;;8.13;73.89;99451.52;1770256;79;21171;-45
2021/04/18 05:58:46;;;;;;;11.20;8.90;;;;;;;8.21;73.88;99437.13;1789360;78;21200;-45
2021/04/18 06:01:14;;;;;;;12.33;9.75;;;;;;;8.33;73.64;99448.47;1775212;79;21166;-45
2021/04/18 06:03:42;;;;;;;13.72;10.18;;;;;;;8.42;73.52;99448.36;1765424;79;21179;-45
2021/04/18 06:06:12;;;;;;;11.20;9.93;;;;;;;8.46;73.31;99446.54;1778632;79;22091;-45
2021/04/18 06:08:41;;;;;;;10.25;9.08;;;;;;;8.52;73.25;99439.17;1766196;79;21202;-46
2021/04/18 06:11:10;;;;;;;11.55;9.20;;;;;;;8.58;72.87;99437.81;1783877;79;21939;-44
2021/04/18 06:13:38;;;;;;;12.20;9.88;;;;;;;8.66;72.74;99434.76;1766622;79;21763;-45
2021/04/18 06:16:08;;;;;;;11.38;9.35;;;;;;;8.68;72.49;99434.63;1773234;79;21142;-43
2021/04/18 06:18:37;;;;;;;11.65;9.55;;;;;;;8.67;72.68;99439.80;1800630;78;21353;-45
2021/04/18 06:21:06;;;;;;;11.12;8.78;;;;;;;8.68;72.57;99445.43;1787340;79;21147;-39
2021/04/18 06:23:34;;;;;;;12.58;9.88;;;;;;;8.74;72.57;99450.03;1775830;79;21617;-40
2021/04/18 06:26:03;;;;;;;11.85;9.90;;;;;;;8.83;72.42;99453.36;1789375;79;21613;-41
2021/04/18 06:28:31;;;;;;;11.10;9.45;;;;;;;8.85;72.36;99455.17;1782087;79;21103;-40
2021/04/18 06:31:09;;;;;;;10.63;9.10;;;;;;;8.82;71.92;99451.78;1788466;79;21422;-41
2021/04/18 06:34:11;;;;;;;11.48;9.40;;;;;;;8.77;72.21;99449.89;1786099;79;21401;-41
2021/04/18 06:36:39;;;;;;;11.30;8.75;;;;;;;8.71;72.26;99446.67;1778561;79;21369;-41
2021/04/18 06:39:07;;;;;;;10.78;8.48;;;;;;;8.68;72.42;99448.13;1785662;79;21162;-42
2021/04/18 06:41:36;;;;;;;12.47;9.23;;;;;;;8.65;72.39;99448.05;1792398;79;21336;-44
2021/04/18 06:44:04;;;;;;;10.45;9.10;;;;;;;8.65;72.66;99436.67;1788286;79;21372;-44
2021/04/18 06:46:32;;;;;;;12.88;9.10;;;;;;;8.68;72.73;99434.63;1783634;79;22438;-42
2021/04/18 06:49:01;;;;;;;11.55;9.70;;;;;;;8.74;72.22;99436.52;1798069;79;21161;-41
2021/04/18 06:51:29;;;;;;;11.70;9.18;;;;;;;8.77;72.46;99435.81;1783695;79;21576;-43
2021/04/18 06:53:57;;;;;;;11.63;9.43;;;;;;;8.79;72.34;99435.48;1790773;79;21151;-43
2021/04/18 06:56:25;;;;;;;11.75;9.28;;;;;;;8.84;72.42;99436.02;1784314;79;21257;-43
2021/04/18 06:58:59;;;;;;;14.15;8.88;;;;;;;8.90;72.53;99440.05;1777796;79;21157;-43
2021/04/18 07:01:27;;;;;;;11.45;8.83;;;;;;;9.02;72.76;99431.86;1788792;79;21585;-42
2021/04/18 07:04:21;;;;;;;14.23;9.53;;;;;;;9.06;72.13;99432.73;1776750;79;21154;-43
2021/04/18 07:06:51;;;;;;;12.90;9.38;;;;;;;9.01;72.33;99437.04;1773661;79;21134;-43
2021/04/18 07:09:21;;;;;;;10.80;9.18;;;;;;;8.93;72.30;99427.74;1775377;79;22119;-43
2021/04/18 07:11:57;;;;;;;10.38;9.28;;;;;;;8.93;72.87;99431.23;1780968;79;21102;-43
2021/04/18 07:14:32;;;;;;;12.25;10.38;;;;;;;9.01;72.38;99423.52;1785443;79;21044;-43
2021/04/18 07:17:15;;;;;;;10.90;9.40;;;;;;;9.05;71.85;99424.98;1786070;79;21160;-42
2021/04/18 07:19:46;;;;;;;14.30;9.70;;;;;;;8.94;72.21;99422.00;1735899;79;21196;-43
2021/04/18 07:22:19;;;;;;;11.45;8.48;;;;;;;8.99;72.17;99425.02;1726393;81;21924;-43
2021/04/18 07:24:51;;;;;;;10.95;9.23;;;;;;;9.00;72.21;99428.73;1736234;81;21014;-43
2021/04/18 07:27:19;;;;;;;12.35;9.08;;;;;;;9.05;72.40;99428.45;1738355;81;21657;-43
2021/04/18 07:29:58;;;;;;;10.88;9.25;;;;;;;9.09;72.39;99422.59;1735544;81;21404;-43
2021/04/18 07:32:28;;;;;;;11.97;9.48;;;;;;;9.10;72.67;99419.32;1743651;81;21178;-43
2021/04/18 07:34:56;;;;;;;11.25;9.30;;;;;;;9.12;72.75;99416.48;1723823;81;22309;-43
2021/04/18 07:37:28;;;;;;;9.15;8.00;;;;;;;9.20;72.76;99420.72;1724009;81;21311;-43
2021/04/18 07:39:59;;;;;;;11.28;9.13;;;;;;;8.96;72.25;99367.55;1728910;81;21121;-43
2021/04/18 07:42:37;;;;;;;;;;;;;;;9.30;71.92;99412.06;1733233;81;21086;-43
2021/04/18 07:45:13;;;;;;;12.37;9.18;;;;;;;9.30;71.67;99415.55;1748500;81;20247;-42
2021/04/18 07:47:43;;;;;;;10.63;8.78;;;;;;;9.21;72.20;99414.16;1738641;81;21362;-43
2021/04/18 07:50:18;;;;;;;10.03;8.60;;;;;;;9.28;72.16;99415.70;1721601;81;21211;-42
2021/04/18 07:52:48;;;;;;;13.20;9.80;;;;;;;9.31;71.56;99409.58;1723130;81;21612;-44
2021/04/18 07:55:17;;;;;;;10.85;8.48;;;;;;;9.27;71.88;99412.77;1723968;81;21193;-41
2021/04/18 07:57:45;;;;;;;10.70;9.08;;;;;;;9.20;71.95;99406.61;1752333;81;21205;-43
2021/04/18 08:00:14;;;;;;;9.85;8.48;;;;;;;9.20;72.39;99400.44;1741076;81;21681;-43
2021/04/18 08:02:52;;;;;;;11.12;8.80;;;;;;;9.26;72.40;99403.08;1728331;81;21482;-43
2021/04/18 08:05:24;;;;;;;11.33;9.28;;;;;;;9.23;71.58;99395.11;1732235;80;21177;-43
2021/04/18 08:08:12;;;;;;;12.10;9.15;;;;;;;9.19;71.93;99387.48;1721577;81;21639;-43
2021/04/18 08:10:43;;;;;;;10.55;7.80;;;;;;;9.18;72.02;99394.02;1743603;81;21141;-43
2021/04/18 08:13:23;;;;;;;;;;;;;;;9.24;72.09;99395.89;1726049;81;21395;-43
2021/04/18 08:16:02;;;;;;;;;;;;;;;9.30;71.95;99399.32;1724978;81;20541;-44
2021/04/18 08:18:42;;;;;;;11.12;8.48;;;;;;;9.22;71.72;99396.80;1735997;81;20270;-44
2021/04/18 08:21:38;;;;;;;9.45;7.97;;;;;;;9.17;72.05;99396.50;1734753;81;21637;-45
2021/04/18 08:24:21;;;;;;;7.83;6.13;;;;;;;9.31;72.35;99397.41;1729377;81;21134;-42
2021/04/18 08:27:00;;;;;;;10.58;8.88;;;;;;;9.47;71.72;99403.60;1727357;81;23595;-39
2021/04/18 08:29:28;;;;;;;10.88;8.93;;;;;;;9.52;71.23;99403.34;1730549;81;21161;-45
2021/04/18 08:32:01;;;;;;;9.98;8.50;;;;;;;9.53;71.00;99400.30;1740540;81;21640;-45
2021/04/18 08:34:35;;;;;;;9.80;8.45;;;;;;;9.54;71.07;99401.84;1740503;81;21169;-45
2021/04/18 08:37:05;;;;;;;9.13;8.08;;;;;;;9.61;70.88;99399.87;1734102;81;21189;-44
2021/04/18 08:39:37;;;;;;;7.35;6.58;;;;;;;9.65;70.72;99399.39;1731702;80;21187;-44
2021/04/18 08:42:06;;;;;;;12.10;8.60;;;;;;;9.67;70.66;99389.00;1696861;84;21605;-44
2021/04/18 08:44:43;;;;;;;10.20;8.35;;;;;;;9.67;70.81;99396.33;1700531;83;21192;-44
2021/04/18 08:47:16;;;;;;;9.43;7.95;;;;;;;9.69;70.92;99392.69;1744298;81;21206;-44
2021/04/18 08:49:51;;;;;;;9.40;8.45;;;;;;;9.76;70.57;99403.12;1745782;81;21193;-45
2021/04/18 08:52:26;;;;;;;10.48;9.03;;;;;;;9.79;70.18;99399.70;1729717;81;21189;-44
2021/04/18 08:54:57;;;;;;;9.88;7.95;;;;;;;9.78;70.14;99396.02;1748462;80;21221;-44
2021/04/18 08:57:29;;;;;;;9.10;8.15;;;;;;;9.76;70.29;99398.28;1742074;81;21163;-44
2021/04/18 09:00:03;;;;;;;9.48;8.05;;;;;;;9.75;70.38;99400.20;1710120;83;21033;-43
2021/04/18 09:02:31;;;;;;;10.53;7.85;;;;;;;9.78;70.33;99398.72;1721335;81;21425;-44
2021/04/18 09:05:02;;;;;;;8.63;7.50;;;;;;;9.77;70.36;99402.00;1736315;81;22264;-44
2021/04/18 09:07:33;;;;;;;9.70;8.35;;;;;;;9.76;70.39;99404.48;1722436;81;21226;-44
2021/04/18 09:10:08;;;;;;;9.23;7.67;;;;;;;9.77;70.63;99396.58;1720333;81;21165;-44
2021/04/18 09:12:39;;;;;;;10.55;7.28;;;;;;;9.79;70.42;99398.91;1722930;81;21125;-44
2021/04/18 09:15:09;;;;;;;9.38;7.37;;;;;;;9.86;70.31;99399.87;1748307;81;21133;-44
2021/04/18 09:17:38;;;;;;;8.08;7.28;;;;;;;9.93;70.27;99400.02;1734024;81;21364;-44
2021/04/18 09:20:11;;;;;;;8.53;7.28;;;;;;;9.97;69.96;99405.53;1737261;81;21122;-45
2021/04/18 09:22:40;;;;;;;7.95;7.08;;;;;;;9.98;69.47;99391.62;1720899;81;21193;-44
2021/04/18 09:25:20;;;;;;;7.70;6.85;;;;;;;9.99;69.81;99391.05;1749996;81;21145;-45
2021/04/18 09:27:49;;;;;;;8.80;6.62;;;;;;;10.01;69.68;99397.70;1753412;81;21434;-45
2021/04/18 09:30:26;;;;;;;8.80;6.53;;;;;;;10.10;69.73;99398.05;1751183;81;21384;-45
2021/04/18 09:32:56;;;;;;;11.85;7.70;;;;;;;10.15;69.60;99395.06;1752821;80;21190;-45
2021/04/18 09:35:26;;;;;;;9.35;7.40;;;;;;;10.17;69.58;99394.94;1750370;81;21126;-45
2021/04/18 09:38:02;;;;;;;7.83;6.95;;;;;;;10.17;69.55;99393.59;1730375;81;21185;-44
2021/04/18 09:40:36;;;;;;;7.80;7.00;;;;;;;10.18;69.49;99390.31;1738680;82;21660;-45
2021/04/18 09:43:07;;;;;;;9.53;6.78;;;;;;;10.22;69.32;99389.81;1744958;81;21375;-45
2021/04/18 09:45:35;;;;;;;7.70;6.85;;;;;;;10.30;69.15;99391.55;1747204;80;21134;-45
2021/04/18 09:48:14;;;;;;;9.98;6.97;;;;;;;10.32;69.33;99391.95;1723652;81;21591;-45
2021/04/18 09:50:42;;;;;;;8.28;6.90;;;;;;;10.32;69.50;99383.83;1723095;81;21189;-45
2021/04/18 09:53:24;;;;;;;7.70;6.90;;;;;;;10.34;69.62;99383.70;1723072;81;21399;-44
2021/04/18 09:56:03;;;;;;;7.78;6.17;;;;;;;10.43;69.48;99385.62;1737470;81;21515;-44
2021/04/18 09:58:38;;;;;;;16.20;11.90;;;;;;;10.60;69.36;99385.73;1714205;81;21189;-44
2021/04/18 10:01:28;;;;;;;7.70;6.60;;;;;;;10.74;69.13;99394.16;1710324;83;21035;-44
2021/04/18 10:03:56;;;;;;;9.75;6.55;;;;;;;10.83;68.69;99392.00;1710522;83;21186;-44
2021/04/18 10:06:25;;;;;;;7.97;7.17;;;;;;;10.84;67.83;99391.43;1712096;81;21172;-44
2021/04/18 10:09:01;;;;;;;9.30;7.10;;;;;;;10.81;68.03;99396.98;1745220;81;22202;-45
2021/04/18 10:11:28;;;;;;;7.33;5.90;;;;;;;10.86;68.18;99402.12;1745801;81;22240;-44
2021/04/18 10:13:58;;;;;;;9.28;7.55;;;;;;;10.92;67.86;99403.18;1726360;81;21185;-44
2021/04/18 10:16:38;;;;;;;7.97;6.92;;;;;;;11.01;67.73;99407.23;1745785;81;21148;-44
2021/04/18 10:19:18;;;;;;;9.08;6.35;;;;;;;11.07;67.47;99402.29;1749946;79;21603;-44
2021/04/18 10:22:10;;;;;;;9.30;8.08;;;;;;;11.10;67.19;99405.63;1744053;81;21192;-44
2021/04/18 10:24:49;;;;;;;14.68;10.55;;;;;;;11.09;67.41;99408.91;1727557;81;21596;-44
2021/04/18 10:27:26;;;;;;;15.63;11.17;;;;;;;11.09;67.32;99410.84;1747714;81;21644;-44
2021/04/18 10:29:54;;;;;;;9.35;7.45;;;;;;;11.09;67.50;99417.05;1740720;80;21196;-45
2021/04/18 10:32:23;;;;;;;8.10;6.28;;;;;;;11.15;67.30;99418.33;1722484;82;21208;-44
2021/04/18 10:34:53;;;;;;;7.95;6.62;;;;;;;11.22;67.06;99416.31;1730047;81;21696;-43
2021/04/18 10:37:25;;;;;;;7.55;5.90;;;;;;;11.24;66.98;99420.22;1724390;81;21602;-44
2021/04/18 10:39:53;;;;;;;10.63;6.15;;;;;;;11.26;66.86;99419.30;1730408;81;21152;-41
2021/04/18 10:42:21;;;;;;;6.70;5.58;;;;;;;11.27;66.58;99413.30;1736115;81;21179;-42
2021/04/18 10:44:50;;;;;;;7.85;6.75;;;;;;;11.27;66.10;99420.09;1736126;81;21211;-42
2021/04/18 10:47:19;;;;;;;7.00;6.10;;;;;;;11.20;66.21;99421.31;1738816;81;21202;-45
2021/04/18 10:49:49;;;;;;;9.08;6.40;;;;;;;11.23;66.63;99428.14;1741010;81;21646;-43
2021/04/18 10:52:19;;;;;;;8.28;6.80;;;;;;;11.30;66.31;99427.49;1749296;81;21215;-43
2021/04/18 10:54:47;;;;;;;6.53;5.87;;;;;;;11.32;66.56;99429.28;1751316;80;21192;-42
2021/04/18 10:57:17;;;;;;;7.70;6.75;;;;;;;11.35;66.81;99432.62;1752595;80;21663;-42
2021/04/18 10:59:44;;;;;;;7.85;7.08;;;;;;;11.42;66.68;99424.61;1754249;81;21482;-42
2021/04/18 11:02:13;;;;;;;7.20;6.50;;;;;;;11.48;66.72;99425.06;1753766;81;21678;-42
2021/04/18 11:04:42;;;;;;;8.30;6.47;;;;;;;11.53;66.72;99424.19;1744391;80;21643;-42
2021/04/18 11:07:10;;;;;;;7.40;6.60;;;;;;;11.50;66.75;99422.20;1739641;81;21618;-41
2021/04/18 11:09:38;;;;;;;7.28;6.03;;;;;;;11.52;66.98;99422.61;1723859;81;21171;-41
2021/04/18 11:12:18;;;;;;;7.05;6.12;;;;;;;11.60;66.91;99420.81;1741419;81;21168;-47
2021/04/18 11:14:46;;;;;;;7.37;5.53;;;;;;;11.68;66.74;99421.91;1753613;81;21171;-47
2021/04/18 11:17:15;;;;;;;8.43;6.17;;;;;;;11.74;66.71;99419.13;1741730;81;21203;-46
2021/04/18 11:19:43;;;;;;;7.72;6.33;;;;;;;11.80;66.85;99422.89;1725667;81;21634;-46
2021/04/18 11:22:12;;;;;;;8.50;6.50;;;;;;;11.84;66.85;99421.00;1736111;81;21192;-46
2021/04/18 11:24:40;;;;;;;6.70;5.50;;;;;;;11.85;66.73;99423.94;1731596;81;21175;-46
2021/04/18 11:27:08;;;;;;;8.55;6.12;;;;;;;11.84;66.94;99424.50;1725597;81;21207;-46
2021/04/18 11:29:40;;;;;;;8.05;6.10;;;;;;;11.85;67.37;99425.30;1739564;81;21073;-47
2021/04/18 11:32:09;;;;;;;7.20;6.50;;;;;;;11.95;67.51;99426.03;1749975;81;21179;-46
2021/04/18 11:34:38;;;;;;;8.03;6.87;;;;;;;12.03;67.66;99424.97;1728292;81;21216;-45
2021/04/18 11:37:06;;;;;;;7.33;6.62;;;;;;;12.09;67.90;99427.01;1729246;81;21426;-45
2021/04/18 11:39:35;;;;;;;10.90;6.80;;;;;;;12.19;68.04;99429.09;1724177;83;21611;-45
2021/04/18 11:42:05;;;;;;;7.58;6.78;;;;;;;12.28;67.56;99432.09;1729125;81;21173;-45
2021/04/18 11:44:34;;;;;;;6.75;6.05;;;;;;;12.34;67.61;99427.34;1745934;81;21140;-45
2021/04/18 11:47:03;;;;;;;7.87;5.92;;;;;;;12.43;66.53;99422.97;1736092;81;21178;-45
2021/04/18 11:49:32;;;;;;;6.40;5.80;;;;;;;12.51;66.34;99417.81;1726942;81;21395;-46
2021/04/18 11:52:00;;;;;;;7.03;6.33;;;;;;;12.59;66.17;99422.18;1724184;81;21163;-45
2021/04/18 11:54:28;;;;;;;7.55;6.55;;;;;;;12.64;65.93;99419.13;1737505;80;21165;-45
2021/04/18 11:56:56;;;;;;;6.87;6.20;;;;;;;12.70;65.58;99423.09;1724173;81;21441;-45